createdAt,value
2023-05-19T00:00:57.223Z,3.47
2023-05-19T00:03:27.818Z,3.50
2023-05-19T00:05:59.718Z,3.44
2023-05-19T00:08:34.358Z,3.45
2023-05-19T00:11:04.658Z,3.24
2023-05-19T00:13:35.497Z,3.52
2023-05-19T00:16:09.005Z,3.23
2023-05-19T00:18:39.047Z,3.38
2023-05-19T00:21:09.326Z,3.44
2023-05-19T00:23:39.286Z,3.42
2023-05-19T00:26:09.592Z,3.14
2023-05-19T00:28:41.127Z,3.62
2023-05-19T00:31:13.678Z,3.49
2023-05-19T00:33:43.627Z,3.49
2023-05-19T00:36:13.722Z,3.98
2023-05-19T00:38:43.765Z,3.74
2023-05-19T00:41:13.830Z,3.52
2023-05-19T00:43:43.931Z,3.74
2023-05-19T00:46:16.584Z,3.40
2023-05-19T00:48:46.912Z,3.50
2023-05-19T00:51:17.987Z,3.73
2023-05-19T00:53:52.185Z,4.00
2023-05-19T00:56:23.263Z,3.53
2023-05-19T00:58:54.871Z,3.85
2023-05-19T01:01:28.108Z,3.54
2023-05-19T01:03:59.733Z,3.52
2023-05-19T01:06:30.604Z,3.70
2023-05-19T01:09:00.648Z,3.70
2023-05-19T01:11:31.105Z,3.61
2023-05-19T01:14:01.237Z,3.64
2023-05-19T01:16:43.522Z,3.48
2023-05-19T01:19:34.465Z,3.24
2023-05-19T01:22:23.053Z,3.49
2023-05-19T01:25:23.052Z,3.25
2023-05-19T01:28:28.414Z,3.48
2023-05-19T01:31:06.190Z,3.29
2023-05-19T01:33:36.963Z,3.71
2023-05-19T01:36:11.130Z,3.61
2023-05-19T01:38:42.473Z,3.32
2023-05-19T01:41:14.086Z,3.36
2023-05-19T01:43:45.012Z,3.40
2023-05-19T01:46:18.753Z,3.36
2023-05-19T01:48:50.849Z,3.53
2023-05-19T01:51:20.944Z,3.56
2023-05-19T01:53:51.403Z,3.42
2023-05-19T01:56:34.482Z,3.47
2023-05-19T01:59:24.795Z,3.48
2023-05-19T02:02:03.870Z,3.50
2023-05-19T02:04:45.317Z,3.46
2023-05-19T02:07:25.913Z,3.29
2023-05-19T02:10:04.207Z,3.57
2023-05-19T02:12:40.351Z,3.57
2023-05-19T02:15:16.917Z,3.42
2023-05-19T02:17:54.703Z,3.37
2023-05-19T02:20:24.992Z,3.37
2023-05-19T02:22:55.023Z,3.49
2023-05-19T02:25:25.976Z,3.61
2023-05-19T02:27:56.081Z,3.49
2023-05-19T02:30:26.153Z,3.56
2023-05-19T02:32:58.704Z,3.81
2023-05-19T02:35:28.651Z,3.43
2023-05-19T02:37:59.054Z,3.65
2023-05-19T02:40:29.009Z,3.63
2023-05-19T02:42:58.980Z,3.52
2023-05-19T02:45:29.398Z,3.22
2023-05-19T02:48:03.321Z,3.60
2023-05-19T02:50:33.487Z,3.38
2023-05-19T02:53:03.653Z,3.66
2023-05-19T02:55:33.651Z,3.73
2023-05-19T02:58:03.614Z,3.89
2023-05-19T03:00:33.746Z,3.98
2023-05-19T03:03:06.675Z,4.37
2023-05-19T03:05:36.977Z,4.26
2023-05-19T03:08:07.596Z,4.09
2023-05-19T03:10:37.626Z,4.18
2023-05-19T03:13:07.624Z,4.23
2023-05-19T03:15:37.768Z,4.44
2023-05-19T03:18:12.186Z,4.51
2023-05-19T03:20:42.546Z,4.42
2023-05-19T03:23:12.753Z,4.47
2023-05-19T03:25:42.738Z,4.45
2023-05-19T03:28:12.654Z,4.34
2023-05-19T03:30:42.821Z,4.81
2023-05-19T03:33:24.177Z,4.51
2023-05-19T03:35:55.332Z,4.59
2023-05-19T03:38:25.323Z,4.90
2023-05-19T03:41:00.424Z,5.08
2023-05-19T03:43:30.408Z,4.69
2023-05-19T03:46:05.123Z,4.97
2023-05-19T03:48:57.964Z,4.84
2023-05-19T03:51:48.144Z,4.99
2023-05-19T03:54:42.916Z,5.19
2023-05-19T03:57:13.791Z,5.20
2023-05-19T03:59:44.188Z,5.27
2023-05-19T04:02:14.424Z,5.12
2023-05-19T04:04:47.072Z,5.12
2023-05-19T04:07:17.167Z,4.89
2023-05-19T04:09:48.803Z,4.79
2023-05-19T04:12:18.791Z,4.83
2023-05-19T04:14:48.881Z,5.24
2023-05-19T04:17:18.981Z,5.42
2023-05-19T04:19:51.557Z,5.07
2023-05-19T04:22:21.617Z,5.05
2023-05-19T04:24:53.165Z,4.83
2023-05-19T04:27:23.161Z,4.59
2023-05-19T04:29:53.195Z,4.56
2023-05-19T04:32:23.677Z,4.88
2023-05-19T04:34:59.007Z,4.63
2023-05-19T04:37:30.916Z,4.68
2023-05-19T04:40:02.012Z,4.70
2023-05-19T04:42:33.134Z,4.51
2023-05-19T04:45:05.704Z,4.75
2023-05-19T04:47:39.671Z,5.44
2023-05-19T04:50:14.428Z,4.91
2023-05-19T04:52:45.731Z,4.75
2023-05-19T04:55:16.112Z,4.51
2023-05-19T04:57:47.219Z,4.69
2023-05-19T05:00:18.996Z,4.34
2023-05-19T05:03:05.315Z,4.27
2023-05-19T05:05:38.522Z,4.52
2023-05-19T05:08:09.038Z,4.59
2023-05-19T05:10:43.684Z,4.58
2023-05-19T05:13:14.415Z,4.53
2023-05-19T05:15:46.365Z,4.51
2023-05-19T05:18:17.932Z,4.45
2023-05-19T05:20:51.742Z,4.49
2023-05-19T05:23:23.138Z,4.32
2023-05-19T05:25:54.459Z,4.71
2023-05-19T05:28:26.115Z,4.47
2023-05-19T05:30:58.078Z,4.78
2023-05-19T05:33:28.263Z,4.54
2023-05-19T05:36:01.271Z,4.46
2023-05-19T05:38:31.927Z,4.36
2023-05-19T05:41:03.281Z,4.33
2023-05-19T05:43:34.280Z,4.01
2023-05-19T05:46:06.874Z,4.37
2023-05-19T05:48:38.057Z,3.96
2023-05-19T05:51:12.428Z,4.25
2023-05-19T05:53:46.093Z,4.14
2023-05-19T05:56:18.498Z,4.06
2023-05-19T05:58:53.965Z,4.14
2023-05-19T06:01:24.557Z,4.35
2023-05-19T06:03:55.674Z,4.11
2023-05-19T06:06:29.856Z,3.93
2023-05-19T06:08:59.948Z,4.61
2023-05-19T06:11:31.315Z,4.23
2023-05-19T06:14:02.685Z,4.34
2023-05-19T06:16:51.596Z,4.36
2023-05-19T06:19:21.816Z,4.44
2023-05-19T06:21:54.687Z,4.26
2023-05-19T06:24:24.715Z,3.79
2023-05-19T06:26:54.747Z,4.07
2023-05-19T06:29:24.804Z,3.86
2023-05-19T06:31:57.018Z,4.23
2023-05-19T06:34:28.095Z,4.14
2023-05-19T06:37:02.669Z,3.97
2023-05-19T06:39:33.995Z,3.84
2023-05-19T06:42:07.677Z,3.94
2023-05-19T06:44:53.897Z,3.54
2023-05-19T06:47:23.994Z,3.91
2023-05-19T06:49:56.976Z,3.95
2023-05-19T06:52:32.995Z,3.69
2023-05-19T06:55:04.682Z,3.92
2023-05-19T06:57:36.274Z,4.22
2023-05-19T07:00:09.479Z,3.98
2023-05-19T07:02:39.736Z,4.30
2023-05-19T07:05:11.120Z,3.95
2023-05-19T07:07:44.348Z,4.10
2023-05-19T07:10:17.503Z,4.18
2023-05-19T07:12:48.370Z,4.60
2023-05-19T07:15:20.850Z,4.29
2023-05-19T07:17:51.627Z,4.22
2023-05-19T07:20:21.837Z,4.12
2023-05-19T07:22:54.481Z,4.48
2023-05-19T07:25:26.336Z,4.13
2023-05-19T07:27:56.548Z,5.31
2023-05-19T07:30:26.596Z,7.24
2023-05-19T07:32:56.623Z,5.45
2023-05-19T07:35:27.130Z,4.90
2023-05-19T07:37:59.950Z,4.23
2023-05-19T07:40:59.303Z,3.71
2023-05-19T07:43:29.965Z,4.13
2023-05-19T07:46:00.123Z,3.97
2023-05-19T07:48:30.331Z,4.14
2023-05-19T07:51:00.477Z,3.87
2023-05-19T07:53:33.130Z,3.78
2023-05-19T07:56:03.358Z,3.78
2023-05-19T07:58:33.515Z,4.08
2023-05-19T08:01:04.026Z,4.70
2023-05-19T08:03:34.197Z,4.26
2023-05-19T08:06:04.364Z,4.40
2023-05-19T08:08:37.031Z,4.53
2023-05-19T08:11:07.840Z,4.16
2023-05-19T08:13:37.908Z,4.21
2023-05-19T08:16:08.581Z,4.58
2023-05-19T08:18:38.737Z,4.37
2023-05-19T08:21:08.865Z,4.15
2023-05-19T08:23:41.480Z,4.24
2023-05-19T08:26:11.550Z,4.12
2023-05-19T08:28:41.480Z,4.02
2023-05-19T08:31:11.481Z,4.22
2023-05-19T08:33:41.553Z,4.43
2023-05-19T08:36:11.621Z,4.56
2023-05-19T08:38:44.298Z,4.44
2023-05-19T08:41:14.400Z,4.48
2023-05-19T08:43:45.295Z,5.02
2023-05-19T08:46:17.155Z,4.62
2023-05-19T08:48:47.976Z,4.66
2023-05-19T08:51:27.981Z,4.51
2023-05-19T08:54:10.202Z,4.41
2023-05-19T08:56:41.153Z,4.38
2023-05-19T08:59:12.016Z,4.58
2023-05-19T09:01:42.946Z,4.46
2023-05-19T09:04:14.032Z,4.28
2023-05-19T09:06:45.376Z,4.21
2023-05-19T09:09:18.409Z,4.03
2023-05-19T09:11:49.314Z,4.36
2023-05-19T09:14:19.290Z,4.20
2023-05-19T09:16:51.250Z,4.37
2023-05-19T09:19:23.004Z,4.11
2023-05-19T09:22:03.481Z,4.40
2023-05-19T09:24:38.752Z,4.22
2023-05-19T09:27:08.873Z,3.96
2023-05-19T09:29:38.918Z,4.13
2023-05-19T09:32:09.574Z,4.32
2023-05-19T09:34:44.530Z,4.02
2023-05-19T09:37:16.144Z,3.52
2023-05-19T09:39:52.291Z,3.93
2023-05-19T09:42:28.529Z,3.78
2023-05-19T09:45:09.837Z,3.77
2023-05-19T09:47:42.193Z,3.58
2023-05-19T09:50:15.030Z,3.63
2023-05-19T09:52:47.205Z,3.82
2023-05-19T09:55:23.281Z,3.70
2023-05-19T09:57:53.341Z,3.50
2023-05-19T10:00:24.559Z,3.58
2023-05-19T10:02:54.729Z,3.69
2023-05-19T10:05:25.176Z,3.55
2023-05-19T10:07:56.573Z,3.76
2023-05-19T10:10:31.772Z,3.70
2023-05-19T10:13:04.264Z,3.51
2023-05-19T10:15:40.740Z,3.58
2023-05-19T10:18:15.105Z,3.61
2023-05-19T10:20:45.916Z,3.69
2023-05-19T10:23:15.945Z,3.86
2023-05-19T10:25:51.102Z,3.61
2023-05-19T10:28:25.682Z,3.49
2023-05-19T10:31:01.624Z,3.50
2023-05-19T10:33:44.364Z,3.72
2023-05-19T10:36:36.408Z,3.51
2023-05-19T10:39:10.414Z,3.44
2023-05-19T10:41:53.871Z,3.43
2023-05-19T10:44:37.097Z,3.26
2023-05-19T10:47:12.392Z,3.15
2023-05-19T10:49:43.508Z,3.43
2023-05-19T10:52:33.849Z,3.61
2023-05-19T10:55:04.977Z,3.24
2023-05-19T10:57:37.850Z,3.46
2023-05-19T11:00:31.474Z,3.50
2023-05-19T11:03:16.419Z,3.62
2023-05-19T11:05:50.195Z,3.57
2023-05-19T11:08:33.985Z,3.63
2023-05-19T11:11:16.486Z,3.24
2023-05-19T11:13:50.909Z,3.23
2023-05-19T11:16:23.719Z,3.23
2023-05-19T11:18:54.101Z,2.99
2023-05-19T11:21:24.777Z,2.98
2023-05-19T11:23:55.941Z,3.02
2023-05-19T11:26:45.273Z,3.16
2023-05-19T11:29:18.792Z,3.17
2023-05-19T11:31:49.579Z,3.03
2023-05-19T11:34:21.371Z,2.96
2023-05-19T11:36:52.361Z,2.81
2023-05-19T11:39:22.751Z,3.22
2023-05-19T11:41:54.276Z,2.84
2023-05-19T11:44:27.035Z,3.21
2023-05-19T11:46:57.436Z,3.18
2023-05-19T11:49:27.962Z,4.01
2023-05-19T11:51:58.312Z,4.05
2023-05-19T11:54:36.708Z,3.22
2023-05-19T11:57:07.229Z,3.14
2023-05-19T11:59:45.660Z,2.88
2023-05-19T12:02:21.725Z,2.96
2023-05-19T12:04:52.335Z,2.91
2023-05-19T12:07:24.991Z,3.26
2023-05-19T12:09:57.552Z,3.36
2023-05-19T12:12:27.582Z,2.92
2023-05-19T12:15:00.536Z,3.11
2023-05-19T12:17:30.607Z,3.04
2023-05-19T12:20:01.717Z,3.16
2023-05-19T12:22:31.998Z,2.94
2023-05-19T12:25:02.881Z,3.13
2023-05-19T12:27:34.766Z,3.13
2023-05-19T12:30:08.537Z,3.45
2023-05-19T12:32:39.241Z,3.14
2023-05-19T12:35:10.381Z,3.33
2023-05-19T12:37:44.905Z,3.36
2023-05-19T12:40:19.437Z,3.31
2023-05-19T12:42:52.262Z,3.35
2023-05-19T12:45:28.030Z,3.50
2023-05-19T12:47:58.610Z,3.31
2023-05-19T12:50:34.390Z,3.49
2023-05-19T12:53:04.815Z,3.57
2023-05-19T12:55:42.210Z,3.73
2023-05-19T12:58:13.371Z,3.87
2023-05-19T13:00:49.885Z,3.94
2023-05-19T13:03:22.376Z,3.70
2023-05-19T13:05:54.049Z,3.75
2023-05-19T13:08:25.672Z,3.75
2023-05-19T13:10:56.314Z,3.56
2023-05-19T13:13:26.545Z,3.54
2023-05-19T13:15:59.445Z,3.70
2023-05-19T13:18:32.279Z,3.51
2023-05-19T13:21:02.368Z,3.78
2023-05-19T13:23:32.575Z,3.95
2023-05-19T13:26:05.020Z,3.73
2023-05-19T13:28:35.714Z,3.68
2023-05-19T13:31:08.411Z,3.66
2023-05-19T13:33:38.449Z,3.72
2023-05-19T13:36:09.489Z,3.92
2023-05-19T13:38:40.459Z,4.06
2023-05-19T13:41:11.002Z,3.93
2023-05-19T13:43:41.243Z,3.90
2023-05-19T13:46:13.893Z,4.03
2023-05-19T13:48:44.067Z,3.89
2023-05-19T13:51:14.511Z,3.84
2023-05-19T13:53:44.594Z,3.73
2023-05-19T13:56:14.597Z,3.76
2023-05-19T13:58:44.650Z,3.90
2023-05-19T14:01:17.462Z,4.09
2023-05-19T14:03:47.697Z,4.12
2023-05-19T14:06:17.851Z,3.93
2023-05-19T14:08:48.648Z,3.95
2023-05-19T14:11:21.892Z,3.99
2023-05-19T14:13:53.874Z,3.88
2023-05-19T14:16:27.445Z,4.23
2023-05-19T14:18:57.671Z,3.80
2023-05-19T14:21:27.810Z,3.69
2023-05-19T14:23:58.089Z,3.71
2023-05-19T14:26:29.389Z,4.13
2023-05-19T14:28:59.856Z,4.05
2023-05-19T14:31:32.585Z,3.81
2023-05-19T14:34:02.739Z,3.80
2023-05-19T14:36:34.138Z,3.68
2023-05-19T14:39:04.237Z,3.62
2023-05-19T14:41:34.247Z,3.85
2023-05-19T14:44:04.309Z,3.85
2023-05-19T14:46:36.962Z,3.72
2023-05-19T14:49:07.120Z,3.96
2023-05-19T14:51:37.233Z,4.15
2023-05-19T14:54:07.374Z,4.13
2023-05-19T14:56:37.520Z,3.90
2023-05-19T14:59:07.547Z,4.22
2023-05-19T15:01:40.274Z,4.24
2023-05-19T15:04:10.417Z,3.99
2023-05-19T15:06:40.413Z,3.86
2023-05-19T15:09:12.100Z,3.88
2023-05-19T15:11:42.071Z,3.53
2023-05-19T15:14:12.072Z,3.86
2023-05-19T15:16:52.964Z,3.71
2023-05-19T15:19:23.125Z,3.72
2023-05-19T15:21:53.440Z,3.89
2023-05-19T15:24:24.524Z,4.58
2023-05-19T15:26:55.578Z,4.06
2023-05-19T15:29:25.608Z,4.32
2023-05-19T15:31:58.434Z,3.87
2023-05-19T15:34:28.762Z,3.90
2023-05-19T15:36:58.774Z,4.71
2023-05-19T15:39:28.940Z,3.93
2023-05-19T15:41:59.039Z,4.07
2023-05-19T15:44:29.643Z,4.12
2023-05-19T15:47:02.508Z,3.87
2023-05-19T15:49:32.684Z,3.79
2023-05-19T15:52:02.821Z,4.03
2023-05-19T15:54:32.939Z,3.72
2023-05-19T15:57:02.960Z,3.88
2023-05-19T15:59:32.994Z,3.94
2023-05-19T16:02:05.859Z,3.78
2023-05-19T16:04:36.213Z,3.71
2023-05-19T16:07:06.340Z,3.93
2023-05-19T16:09:36.387Z,3.73
2023-05-19T16:12:06.856Z,3.36
2023-05-19T16:14:37.935Z,4.04
2023-05-19T16:17:11.795Z,3.95
2023-05-19T16:19:41.818Z,4.09
2023-05-19T16:22:11.873Z,3.70
2023-05-19T16:24:41.993Z,3.57
2023-05-19T16:27:12.213Z,3.69
2023-05-19T16:29:42.348Z,3.61
2023-05-19T16:32:15.381Z,3.73
2023-05-19T16:34:45.647Z,3.56
2023-05-19T16:37:15.800Z,3.69
2023-05-19T16:39:48.478Z,3.58
2023-05-19T16:42:18.508Z,3.77
2023-05-19T16:44:48.533Z,3.65
2023-05-19T16:47:21.261Z,3.87
2023-05-19T16:49:51.492Z,3.59
2023-05-19T16:52:21.581Z,3.53
2023-05-19T16:54:51.582Z,4.20
2023-05-19T16:57:21.715Z,4.07
2023-05-19T16:59:51.826Z,3.67
2023-05-19T17:02:24.440Z,3.97
2023-05-19T17:04:55.497Z,3.96
2023-05-19T17:07:25.566Z,3.55
2023-05-19T17:09:56.046Z,3.45
2023-05-19T17:12:26.276Z,3.58
2023-05-19T17:14:57.193Z,3.46
2023-05-19T17:17:29.736Z,3.48
2023-05-19T17:19:59.897Z,3.19
2023-05-19T17:22:30.484Z,3.32
2023-05-19T17:25:00.493Z,3.43
2023-05-19T17:27:30.501Z,3.46
2023-05-19T17:30:00.546Z,3.40
2023-05-19T17:32:36.196Z,3.50
2023-05-19T17:35:06.822Z,3.68
2023-05-19T17:37:37.354Z,3.78
2023-05-19T17:40:08.607Z,3.76
2023-05-19T17:42:38.822Z,3.86
2023-05-19T17:45:12.211Z,3.80
2023-05-19T17:47:44.845Z,3.67
2023-05-19T17:50:14.845Z,3.48
2023-05-19T17:52:45.970Z,3.56
2023-05-19T17:55:16.850Z,3.53
2023-05-19T17:57:48.760Z,3.98
2023-05-19T18:00:19.396Z,3.56
2023-05-19T18:02:53.044Z,3.50
2023-05-19T18:05:24.227Z,3.85
2023-05-19T18:07:56.460Z,3.73
2023-05-19T18:10:30.242Z,4.14
2023-05-19T18:13:00.521Z,3.85
2023-05-19T18:15:30.469Z,3.75
2023-05-19T18:18:04.476Z,3.97
2023-05-19T18:20:35.140Z,3.57
2023-05-19T18:23:05.365Z,3.95
2023-05-19T18:25:35.456Z,4.09
2023-05-19T18:28:05.594Z,3.81
2023-05-19T18:30:36.306Z,4.16
2023-05-19T18:33:08.956Z,4.13
2023-05-19T18:35:39.899Z,3.98
2023-05-19T18:38:09.905Z,4.02
2023-05-19T18:40:40.440Z,3.84
2023-05-19T18:43:10.481Z,3.82
2023-05-19T18:45:40.610Z,4.12
2023-05-19T18:48:13.694Z,3.62
2023-05-19T18:50:44.782Z,3.63
2023-05-19T18:53:14.786Z,3.90
2023-05-19T18:55:44.831Z,4.11
2023-05-19T18:58:14.828Z,3.94
2023-05-19T19:00:44.951Z,3.78
2023-05-19T19:03:17.794Z,3.68
2023-05-19T19:05:47.970Z,3.75
2023-05-19T19:08:18.068Z,4.10
2023-05-19T19:10:49.178Z,3.87
2023-05-19T19:13:19.517Z,4.18
2023-05-19T19:15:49.654Z,4.27
2023-05-19T19:18:22.465Z,4.78
2023-05-19T19:20:52.513Z,4.75
2023-05-19T19:23:22.510Z,4.49
2023-05-19T19:25:52.665Z,4.65
2023-05-19T19:28:22.743Z,4.42
2023-05-19T19:30:52.820Z,4.74
2023-05-19T19:33:25.514Z,4.77
2023-05-19T19:35:55.704Z,4.64
2023-05-19T19:38:25.825Z,4.47
2023-05-19T19:40:55.977Z,4.65
2023-05-19T19:43:26.048Z,4.49
2023-05-19T19:46:01.657Z,4.50
2023-05-19T19:48:34.368Z,4.58
2023-05-19T19:51:04.396Z,4.58
2023-05-19T19:53:34.517Z,4.80
2023-05-19T19:56:07.411Z,4.69
2023-05-19T19:58:37.596Z,4.71
2023-05-19T20:01:08.533Z,4.81
2023-05-19T20:03:41.326Z,4.39
2023-05-19T20:06:11.538Z,5.03
2023-05-19T20:08:41.546Z,5.25
2023-05-19T20:11:11.673Z,5.43
2023-05-19T20:13:41.828Z,5.46
2023-05-19T20:16:11.893Z,5.71
2023-05-19T20:18:44.589Z,5.63
2023-05-19T20:21:14.718Z,5.82
2023-05-19T20:23:44.727Z,5.72
2023-05-19T20:26:15.142Z,5.76
2023-05-19T20:28:45.249Z,6.30
2023-05-19T20:31:15.364Z,6.32
2023-05-19T20:33:48.003Z,6.09
2023-05-19T20:36:18.296Z,6.03
2023-05-19T20:38:48.372Z,5.98
2023-05-19T20:41:18.409Z,6.36
2023-05-19T20:43:48.431Z,6.31
2023-05-19T20:46:18.516Z,6.70
2023-05-19T20:48:51.206Z,6.26
2023-05-19T20:51:21.931Z,6.29
2023-05-19T20:53:51.993Z,6.30
2023-05-19T20:56:22.540Z,6.25
2023-05-19T20:58:52.606Z,6.28
2023-05-19T21:01:22.639Z,6.28
2023-05-19T21:03:55.332Z,6.08
2023-05-19T21:06:25.349Z,6.38
2023-05-19T21:08:55.326Z,6.64
2023-05-19T21:11:25.405Z,6.60
2023-05-19T21:13:56.333Z,7.36
2023-05-19T21:16:26.728Z,7.72
2023-05-19T21:18:59.462Z,7.73
2023-05-19T21:21:29.603Z,6.98
2023-05-19T21:23:59.673Z,7.27
2023-05-19T21:26:29.911Z,7.66
2023-05-19T21:28:59.876Z,7.33
2023-05-19T21:31:29.911Z,7.03
2023-05-19T21:34:02.529Z,6.74
2023-05-19T21:36:33.058Z,6.53
2023-05-19T21:39:03.884Z,6.70
2023-05-19T21:41:34.027Z,6.84
2023-05-19T21:44:04.067Z,6.93
2023-05-19T21:46:34.061Z,7.01
2023-05-19T21:49:08.622Z,7.31
2023-05-19T21:51:38.795Z,6.86
2023-05-19T21:54:08.874Z,7.10
2023-05-19T21:56:38.928Z,7.12
2023-05-19T21:59:09.272Z,6.81
2023-05-19T22:01:39.361Z,6.94
2023-05-19T22:04:12.110Z,6.89
2023-05-19T22:06:42.102Z,7.00
2023-05-19T22:09:12.216Z,6.86
2023-05-19T22:11:45.096Z,7.00
2023-05-19T22:14:15.170Z,7.03
2023-05-19T22:16:45.309Z,6.65
2023-05-19T22:19:18.335Z,6.70
2023-05-19T22:21:49.275Z,7.93
2023-05-19T22:24:21.745Z,7.14
2023-05-19T22:26:51.776Z,6.98
2023-05-19T22:29:21.888Z,6.77
2023-05-19T22:31:51.868Z,6.12
2023-05-19T22:34:24.563Z,6.43
2023-05-19T22:36:54.660Z,6.05
2023-05-19T22:39:24.730Z,6.01
2023-05-19T22:41:54.708Z,5.86
2023-05-19T22:44:24.704Z,6.03
2023-05-19T22:46:54.728Z,6.30
2023-05-19T22:49:27.612Z,6.23
2023-05-19T22:51:57.595Z,5.96
2023-05-19T22:54:27.659Z,5.94
2023-05-19T22:56:57.684Z,6.44
2023-05-19T22:59:27.649Z,6.22
2023-05-19T23:01:57.751Z,6.43
2023-05-19T23:04:30.689Z,6.16
2023-05-19T23:07:00.751Z,5.51
2023-05-19T23:09:30.812Z,5.87
2023-05-19T23:12:00.876Z,5.21
2023-05-19T23:14:31.782Z,5.29
2023-05-19T23:17:01.762Z,5.26
2023-05-19T23:19:35.488Z,5.12
2023-05-19T23:22:05.577Z,4.59
2023-05-19T23:24:35.660Z,4.80
2023-05-19T23:27:05.718Z,4.89
2023-05-19T23:29:35.687Z,4.85
2023-05-19T23:32:05.686Z,4.75
2023-05-19T23:34:38.311Z,4.71
2023-05-19T23:37:08.778Z,4.75
2023-05-19T23:39:38.889Z,4.73
2023-05-19T23:42:09.306Z,4.81
2023-05-19T23:44:39.286Z,5.00
2023-05-19T23:47:09.463Z,4.87
2023-05-19T23:49:42.243Z,4.91
2023-05-19T23:52:14.018Z,6.60
2023-05-19T23:54:44.059Z,8.45
2023-05-19T23:57:14.046Z,6.74
2023-05-19T23:59:44.045Z,5.40
